EYVIEYPA

Guest
Details From EYVI - VILNIUS INTL
To EYPA - PALANGA INTL
Flight Number -
Tags generated
Created
Modified
Stats Distance 164 nm / 304 km
Max Altitude 12,900 ft / 3,932 m
Waypoints 3
Social Downloads 1
Likes 0
Share VATSIM

Download

Looking for another format? Having issues loading an existing format? Contact us
Advertisement - Login to hide

Notes

Basic altitude profile: - Ascent Rate: 2500ft/min - Ascent Speed: 250kts - Cruise Altitude: 35000ft - Cruise Speed: 420kts - Descent Rate: 1500ft/min - Descent Speed: 250kts Options: - Use NATs: yes - Use PACOTS: yes - Use low airways: no - Use high airways: yes

Route

EYVI TOTRA EYPA

ID Type Via Altitude Latitude Longitude Leg Dist Tot Dist Heading (true) Name
O EYVI APT - 0 ft / 0 m 54.63417˚ 25.28580˚ - 0 nm - VILNIUS INTL
TOTRA FIX - 12,900 ft / 3,932 m 55.44306˚ 22.77111˚ 99 nm 99 nm 300° / 298° -
O EYPA APT - 0 ft / 0 m 55.97312˚ 21.09381˚ 65 nm 164 nm 300° / 299° PALANGA INTL

Altitude Profile

Advertisement - Login to hide

Weather


0- 5 10 15 20 25 30 35+ Temperature / ° C

Clouds and Precipitation
Forecast for 2017-12-18 12:00 UTC. Updated 2 hours ago

Ground ~20,000 ft ~40,000 ft Winds

EYVI

Details ICAO EYVI (VNO)
Name VILNIUS INTL
Region Lithuania
Timezone Europe/Vilnius (UTC+2.0)
Stats Elevation 646 ft / 197 m (AMSL)
Location 54.634166° 25.285796°
Runways 1
Magnetic Variation 7.472° E

METAR

EYVI 181220Z 31004KT 2800 BR OVC002 M01/M01 Q1024 R01/2///95 NOSIG

Decode

TAF

TAF TAF EYVI 181105Z 1812/1912 33005KT 3000 BR OVC002 TEMPO 1813/1816 0700 FZFG BECMG 1816/1818 1400 TEMPO 1818/1904 0400 FZFG BECMG 1906/1908 5000 BKN010

Decode

Departure Runways

ID Width Length Bearing (true) Bearing (mag) Surface Threshold Offset Overrun Length
02 164 ft / 50 m 8,210 ft / 2,502 m 21.89° 14.42° Asphalt 0 ft / 0 m 151 ft / 46 m
20 164 ft / 50 m 8,210 ft / 2,502 m 201.91° 194.44° Asphalt 0 ft / 0 m 0 ft / 0 m

EYPA

Details ICAO EYPA (PLQ)
Name PALANGA INTL
Region Lithuania
Timezone Europe/Vilnius (UTC+2.0)
Stats Elevation 33 ft / 10 m (AMSL)
Location 55.973115° 21.093811°
Runways 1
Magnetic Variation 6.527° E

METAR

EYPA 181220Z 15004KT 5000 BR FEW002 BKN017 BKN054 00/00 Q1025 R19/610295

Decode

TAF

TAF AMD TAF AMD EYPA 180705Z 1807/1906 VRB05KT 7000 BKN020 TEMPO 1807/1812 4000 SHSN SCT005 BKN015CB BECMG 1820/1821 29015KT TEMPO 1902/1906 3000 RASN BR OVC015

Decode

Destination Runways

ID Width Length Bearing (true) Bearing (mag) Surface Threshold Offset Overrun Length
01 131 ft / 40 m 6,473 ft / 1,973 m 12.70° 6.17° Asphalt 0 ft / 0 m 0 ft / 0 m
19 131 ft / 40 m 6,473 ft / 1,973 m 192.71° 186.18° Asphalt 0 ft / 0 m 0 ft / 0 m

Approach Navaids

Runway Type Ident Frequency Range Bearing (true) Bearing (mag) Slope Elevation
19 Localiser IAN 110.10 MHz 18 nm / 33 km 192.71° 186.18° - 33 ft / 10 m (AMSL)
19 Glidescope IAN 110.10 MHz 10 nm / 19 km 192.71° 186.18° 3.00° 33 ft / 10 m (AMSL)
19 DME IAN 110.10 MHz 18 nm / 33 km - - - 39 ft / 12 m (AMSL)

Popular Alternatives